Create Custom Reports and Graphics: Custom Report

Modesto Jr College

Current Conditions

11/21/19 7:30 AM (-08:00)
Updated Every 15 Minutes
Temp 39.7 °F   13.4
RH 95 %   39
Dew Pt 38.4 °F   0.2
Wind Spd 1.5 mph
Wind Dir WSW | 253 °
Wind Gust 3.1 mph   5.9
Latest Rain 0.00 In
Daily Rain 0.00 In
Daily Min Temp 38.4 °F   1.9
Daily Max Temp 50.0 °F   4.0

Last 24 Hours

Modesto Jr College

15 Minute Data | America/Los_Angeles
as of 11/21/19 7:37 AM PST
Date & Time Temp (°F) RH (%) Dew Pt (°F) Wind Spd (mph) Wind Dir (°) Wind Gust (mph) Latest Rain (In) Daily Rain (In) Daily Min Temp (°F) Daily Max Temp (°F)
11/21/19 - 0730 39.7 95 38.4 1.5 WSW | 253 3.1 0.00 0.00 38.4 50.0
11/21/19 - 0715 38.7 94 37.3 1.5 WSW | 256 3.5 0.00 0.00 38.4 50.0
11/21/19 - 0700 39.4 94 37.9 0.2 NE | 34 0.9 0.00 0.00 38.4 50.0
11/21/19 - 0645 39.7 95 38.4 0.9 NE | 34 1.8 0.00 0.00 38.4 50.0
11/21/19 - 0630 39.0 94 37.4 0.2 NE | 34 1.3 0.00 0.00 38.4 50.0
11/21/19 - 0615 40.1 94 38.5 0.1 NE | 34 0.7 0.00 0.00 39.4 50.0
11/21/19 - 0600 40.3 94 38.6 0.0 NE | 34 0.7 0.00 0.00 40.0 50.0
11/21/19 - 0545 40.9 94 39.2 0.5 NE | 40 2.6 0.00 0.00 40.0 50.0
11/21/19 - 0530 40.5 93 38.6 1.1 N | 9 2.8 0.00 0.00 40.0 50.0
11/21/19 - 0515 41.2 92 39.0 2.6 W | 261 5.0 0.00 0.00 40.6 50.0
11/21/19 - 0500 43.6 92 41.6 0.9 NW | 318 3.9 0.00 0.00 41.6 50.0
11/21/19 - 0445 43.8 94 42.1 2.8 NE | 50 4.8 0.00 0.00 41.6 50.0
11/21/19 - 0430 42.6 93 40.8 2.2 NE | 52 4.4 0.00 0.00 41.6 50.0
11/21/19 - 0415 41.8 92 39.8 1.4 NE | 45 2.6 0.00 0.00 41.6 50.0
11/21/19 - 0400 42.4 92 40.2 1.4 NE | 52 2.0 0.00 0.00 41.6 50.0
11/21/19 - 0345 42.3 92 40.2 0.6 ENE | 71 2.6 0.00 0.00 41.6 50.0
11/21/19 - 0330 42.1 89 39.2 0.0 NNW | 348 0.7 0.00 0.00 41.6 50.0
11/21/19 - 0315 44.5 88 41.1 0.6 W | 277 1.8 0.00 0.00 42.8 50.0
11/21/19 - 0300 45.5 89 42.5 1.4 S | 181 3.3 0.00 0.00 44.2 50.0
11/21/19 - 0245 44.7 88 41.3 1.7 S | 186 4.8 0.00 0.00 44.2 50.0
11/21/19 - 0230 46.0 86 42.2 0.8 WSW | 237 1.8 0.00 0.00 45.1 50.0
11/21/19 - 0215 46.9 86 43.0 1.8 SSE | 167 4.2 0.00 0.00 46.5 50.0
11/21/19 - 0200 47.3 86 43.2 3.3 SE | 137 5.7 0.00 0.00 47.0 50.0
11/21/19 - 0145 47.4 84 42.9 2.0 S | 172 4.2 0.00 0.00 47.1 50.0
11/21/19 - 0130 47.8 82 42.6 1.4 SSW | 210 2.8 0.00 0.00 47.2 50.0
11/21/19 - 0115 48.7 81 43.2 1.8 SE | 143 4.2 0.00 0.00 48.4 50.0
11/21/19 - 0100 49.3 80 43.5 3.1 SSE | 149 6.6 0.00 0.00 48.9 50.0
11/21/19 - 0045 49.7 80 43.8 5.0 SE | 140 11.2 0.00 0.00 49.3 50.0
11/21/19 - 0030 49.5 81 43.9 3.6 SE | 142 7.5 0.00 0.00 49.3 50.0
11/21/19 - 0015 49.7 81 44.1 3.9 SE | 144 7.9 0.00 0.00 49.4 50.0
11/21/19 - 0000 50.0 80 44.3 4.1 SE | 136 7.2 0.00 0.00 40.3 68.3
11/20/19 - 2345 50.2 80 44.2 3.5 SE | 136 6.4 0.00 0.00 40.3 68.3
11/20/19 - 2330 50.8 79 44.4 3.9 SE | 132 7.2 0.00 0.00 40.3 68.3
11/20/19 - 2315 51.2 78 44.6 5.0 SE | 138 9.6 0.00 0.00 40.3 68.3
11/20/19 - 2300 51.4 77 44.6 4.9 SE | 126 9.2 0.00 0.00 40.3 68.3
11/20/19 - 2245 51.8 77 44.7 6.1 SE | 127 12.7 0.00 0.00 40.3 68.3
11/20/19 - 2230 52.2 76 44.9 6.4 SE | 124 12.5 0.00 0.00 40.3 68.3
11/20/19 - 2215 52.3 76 44.9 5.3 ESE | 118 11.2 0.00 0.00 40.3 68.3
11/20/19 - 2200 52.9 73 44.6 6.3 ESE | 107 11.0 0.00 0.00 40.3 68.3
11/20/19 - 2145 53.7 71 44.7 5.6 ESE | 115 10.5 0.00 0.00 40.3 68.3
11/20/19 - 2130 54.0 70 44.3 5.1 ESE | 122 8.3 0.00 0.00 40.3 68.3
11/20/19 - 2115 54.3 68 43.9 5.3 ESE | 123 11.6 0.00 0.00 40.3 68.3
11/20/19 - 2100 54.6 66 43.3 6.1 SE | 126 14.2 0.00 0.00 40.3 68.3
11/20/19 - 2045 55.2 64 43.1 5.3 ESE | 122 11.2 0.00 0.00 40.3 68.3
11/20/19 - 2030 55.9 62 43.2 8.5 SE | 136 16.9 0.00 0.00 40.3 68.3
11/20/19 - 2015 56.4 60 42.8 8.0 SE | 132 16.4 0.00 0.00 40.3 68.3
11/20/19 - 2000 56.6 59 42.4 6.6 ESE | 122 13.4 0.00 0.00 40.3 68.3
11/20/19 - 1945 56.9 57 41.9 6.8 SE | 126 16.7 0.00 0.00 40.3 68.3
11/20/19 - 1930 57.3 55 41.4 7.2 ESE | 115 15.3 0.00 0.00 40.3 68.3
11/20/19 - 1915 57.1 56 41.4 4.9 ESE | 118 14.0 0.00 0.00 40.3 68.3
11/20/19 - 1900 57.4 56 41.7 5.1 SE | 125 9.2 0.00 0.00 40.3 68.3
11/20/19 - 1845 57.6 55 41.8 6.0 ESE | 106 9.9 0.00 0.00 40.3 68.3
11/20/19 - 1830 58.0 55 41.9 6.6 ESE | 108 11.4 0.00 0.00 40.3 68.3
11/20/19 - 1815 58.5 54 41.8 7.4 ESE | 108 13.2 0.00 0.00 40.3 68.3
11/20/19 - 1800 59.3 52 41.5 6.1 ESE | 113 12.9 0.00 0.00 40.3 68.3
11/20/19 - 1745 60.0 48 40.5 5.9 ESE | 114 11.8 0.00 0.00 40.3 68.3
11/20/19 - 1730 60.7 45 39.2 6.1 ESE | 115 11.0 0.00 0.00 40.3 68.3
11/20/19 - 1715 61.4 41 37.8 6.0 ESE | 111 11.0 0.00 0.00 40.3 68.3
11/20/19 - 1700 62.0 39 36.8 6.5 ESE | 107 11.8 0.00 0.00 40.3 68.3
11/20/19 - 1645 62.2 38 36.6 4.3 ESE | 103 8.6 0.00 0.00 40.3 68.3
11/20/19 - 1630 63.1 37 36.2 4.7 E | 101 9.2 0.00 0.00 40.3 68.3
11/20/19 - 1615 63.7 36 36.4 4.6 ESE | 103 7.9 0.00 0.00 40.3 68.3
11/20/19 - 1600 64.5 36 36.6 5.9 E | 96 10.3 0.00 0.00 40.3 68.3
11/20/19 - 1545 65.0 35 36.9 5.8 E | 94 9.6 0.00 0.00 40.3 68.3
11/20/19 - 1530 65.5 34 36.5 5.0 E | 101 9.0 0.00 0.00 40.3 68.3
11/20/19 - 1515 66.1 33 36.3 6.0 E | 86 9.0 0.00 0.00 40.3 68.3
11/20/19 - 1500 66.8 32 36.4 4.0 E | 85 7.7 0.00 0.00 40.3 68.3
11/20/19 - 1445 66.6 32 36.2 3.4 E | 85 7.0 0.00 0.00 40.3 68.3
11/20/19 - 1430 67.3 32 36.4 4.4 ENE | 77 7.5 0.00 0.00 40.3 68.3
11/20/19 - 1415 67.4 31 36.1 1.9 NNE | 18 5.0 0.00 0.00 40.3 67.7
11/20/19 - 1400 67.1 33 36.9 2.5 NNE | 28 5.5 0.00 0.00 40.3 67.6
11/20/19 - 1345 66.3 33 36.4 2.5 N | 354 6.4 0.00 0.00 40.3 67.1
11/20/19 - 1330 65.7 35 37.0 4.2 NNW | 348 8.6 0.00 0.00 40.3 66.2
11/20/19 - 1315 65.0 35 36.6 3.2 NNW | 347 7.7 0.00 0.00 40.3 66.0
11/20/19 - 1300 64.0 36 36.5 3.6 NNW | 346 7.2 0.00 0.00 40.3 65.1
11/20/19 - 1245 64.0 36 36.7 5.1 NNW | 328 10.5 0.00 0.00 40.3 64.9
11/20/19 - 1230 64.0 37 37.1 4.7 NNW | 347 14.2 0.00 0.00 40.3 64.8
11/20/19 - 1215 63.0 38 37.1 3.9 N | 349 7.0 0.00 0.00 40.3 63.8
11/20/19 - 1200 62.4 39 37.0 4.8 NNW | 339 11.0 0.00 0.00 40.3 63.4
11/20/19 - 1145 61.5 38 35.8 6.8 NW | 321 11.6 0.00 0.00 40.3 62.8
11/20/19 - 1130 61.8 38 36.0 7.1 NNW | 340 13.8 0.00 0.00 40.3 62.8
11/20/19 - 1115 62.2 38 36.3 7.0 NW | 326 13.2 0.00 0.00 40.3 62.8
11/20/19 - 1100 61.5 38 35.6 6.6 NW | 310 12.1 0.00 0.00 40.3 62.1
11/20/19 - 1045 61.2 38 35.4 6.7 NW | 322 12.5 0.00 0.00 40.3 62.1
11/20/19 - 1030 61.0 38 35.4 6.8 NNW | 328 12.9 0.00 0.00 40.3 62.1
11/20/19 - 1015 60.2 39 35.2 8.3 NW | 315 15.6 0.00 0.00 40.3 62.1
11/20/19 - 1000 61.2 38 35.6 8.5 NW | 308 16.0 0.00 0.00 40.3 62.1
11/20/19 - 0945 60.5 39 35.6 9.2 WNW | 296 20.4 0.00 0.00 40.3 61.8
11/20/19 - 0930 58.5 43 36.0 8.7 WNW | 296 15.3 0.00 0.00 40.3 60.3
11/20/19 - 0915 59.5 43 37.2 6.8 WNW | 286 12.7 0.00 0.00 40.3 60.3
11/20/19 - 0900 57.7 47 37.7 6.3 W | 278 10.5 0.00 0.00 40.3 59.1
11/20/19 - 0845 56.6 49 37.8 5.5 W | 281 9.9 0.00 0.00 40.3 57.3
11/20/19 - 0830 56.4 49 37.7 5.7 WNW | 289 10.1 0.00 0.00 40.3 57.3
11/20/19 - 0815 56.9 49 38.0 6.1 W | 281 11.4 0.00 0.00 40.3 57.3
11/20/19 - 0800 56.1 50 38.0 7.2 WNW | 285 13.2 0.00 0.00 40.3 56.8
11/20/19 - 0745 54.8 53 38.2 6.5 WNW | 284 11.6 0.00 0.00 40.3 55.6
11/20/19 - 0730 53.1 57 38.2 5.4 WNW | 284 9.0 0.00 0.00 40.3 54.0
Max 67.4 95 44.9 9.2 - 20.4 0.00 0.00 49.4 68.3
Avg 54.5 62 39.7 4.4 - 8.7 0.00 - - -
Min 38.7 31 35.2 0.0 - 0.7 0.00 0.00 38.4 50.0
Total - - - - - - 0.00 - - -

Last 7 Days

Modesto Jr College

Daily Data | America/Los_Angeles
as of 11/21/19 7:37 AM PST
Date Daily ETo (in)
11/20/19 0.08
11/19/19 0.07
11/18/19 0.06
11/17/19 0.06
11/16/19 0.06
11/15/19 0.07
11/14/19 0.06
Max 0.08
Min 0.06